sensor_id;sensor_type;location;lat;lon;timestamp;temperature;humidity
15656;DHT22;7928;43.614;1.456;2023-06-10T00:01:16;17.00;99.90
15656;DHT22;7928;43.614;1.456;2023-06-10T00:03:44;16.90;99.90
15656;DHT22;7928;43.614;1.456;2023-06-10T00:06:11;17.00;99.90
15656;DHT22;7928;43.614;1.456;2023-06-10T00:08:38;17.00;99.90
15656;DHT22;7928;43.614;1.456;2023-06-10T00:11:05;17.00;99.90
15656;DHT22;7928;43.614;1.456;2023-06-10T00:13:32;17.00;99.90
15656;DHT22;7928;43.614;1.456;2023-06-10T00:16:00;16.90;99.90
15656;DHT22;7928;43.614;1.456;2023-06-10T00:18:27;16.90;99.90
15656;DHT22;7928;43.614;1.456;2023-06-10T00:20:56;16.90;99.90
15656;DHT22;7928;43.614;1.456;2023-06-10T00:23:28;16.90;99.90
15656;DHT22;7928;43.614;1.456;2023-06-10T00:25:57;16.90;99.90
15656;DHT22;7928;43.614;1.456;2023-06-10T00:28:25;16.90;99.90
15656;DHT22;7928;43.614;1.456;2023-06-10T00:30:52;16.90;99.90
15656;DHT22;7928;43.614;1.456;2023-06-10T00:33:20;16.90;99.90
15656;DHT22;7928;43.614;1.456;2023-06-10T00:35:47;16.90;99.90
15656;DHT22;7928;43.614;1.456;2023-06-10T00:38:14;16.90;99.90
15656;DHT22;7928;43.614;1.456;2023-06-10T00:40:41;16.90;99.90
15656;DHT22;7928;43.614;1.456;2023-06-10T00:43:08;17.00;99.90
15656;DHT22;7928;43.614;1.456;2023-06-10T00:45:35;17.00;99.90
15656;DHT22;7928;43.614;1.456;2023-06-10T00:48:04;17.00;99.90
15656;DHT22;7928;43.614;1.456;2023-06-10T00:50:32;17.00;99.90
15656;DHT22;7928;43.614;1.456;2023-06-10T00:53:00;17.00;99.90
15656;DHT22;7928;43.614;1.456;2023-06-10T00:55:28;17.00;99.90
15656;DHT22;7928;43.614;1.456;2023-06-10T00:57:55;17.00;99.90
15656;DHT22;7928;43.614;1.456;2023-06-10T01:00:22;17.00;99.90
15656;DHT22;7928;43.614;1.456;2023-06-10T01:02:49;17.00;99.90
15656;DHT22;7928;43.614;1.456;2023-06-10T01:05:18;17.00;99.90
15656;DHT22;7928;43.614;1.456;2023-06-10T01:07:52;17.00;99.90
15656;DHT22;7928;43.614;1.456;2023-06-10T01:10:29;16.90;99.90
15656;DHT22;7928;43.614;1.456;2023-06-10T01:12:59;16.90;99.90
15656;DHT22;7928;43.614;1.456;2023-06-10T01:15:29;16.90;99.90
15656;DHT22;7928;43.614;1.456;2023-06-10T01:17:57;17.00;99.90
15656;DHT22;7928;43.614;1.456;2023-06-10T01:20:25;16.90;99.90
15656;DHT22;7928;43.614;1.456;2023-06-10T01:22:54;16.90;99.90
15656;DHT22;7928;43.614;1.456;2023-06-10T01:25:23;16.90;99.90
15656;DHT22;7928;43.614;1.456;2023-06-10T01:27:55;16.80;99.90
15656;DHT22;7928;43.614;1.456;2023-06-10T01:30:28;16.80;99.90
15656;DHT22;7928;43.614;1.456;2023-06-10T01:32:58;16.80;99.90
15656;DHT22;7928;43.614;1.456;2023-06-10T01:35:27;16.80;99.90
15656;DHT22;7928;43.614;1.456;2023-06-10T01:37:58;16.80;99.90
15656;DHT22;7928;43.614;1.456;2023-06-10T01:40:28;16.80;99.90
15656;DHT22;7928;43.614;1.456;2023-06-10T01:42:55;16.80;99.90
15656;DHT22;7928;43.614;1.456;2023-06-10T01:45:23;16.80;99.90
15656;DHT22;7928;43.614;1.456;2023-06-10T01:47:49;16.80;99.90
15656;DHT22;7928;43.614;1.456;2023-06-10T01:50:16;16.80;99.90
15656;DHT22;7928;43.614;1.456;2023-06-10T01:52:44;16.80;99.90
15656;DHT22;7928;43.614;1.456;2023-06-10T01:55:13;16.80;99.90
15656;DHT22;7928;43.614;1.456;2023-06-10T01:57:40;16.80;99.90
15656;DHT22;7928;43.614;1.456;2023-06-10T02:00:08;16.80;99.90
15656;DHT22;7928;43.614;1.456;2023-06-10T02:02:36;16.70;99.90
15656;DHT22;7928;43.614;1.456;2023-06-10T02:05:03;16.70;99.90
15656;DHT22;7928;43.614;1.456;2023-06-10T02:07:30;16.70;99.90
15656;DHT22;7928;43.614;1.456;2023-06-10T02:09:57;16.70;99.90
15656;DHT22;7928;43.614;1.456;2023-06-10T02:12:26;16.70;99.90
15656;DHT22;7928;43.614;1.456;2023-06-10T02:14:52;16.70;99.90
15656;DHT22;7928;43.614;1.456;2023-06-10T02:17:19;16.70;99.90
15656;DHT22;7928;43.614;1.456;2023-06-10T02:19:46;16.70;99.90
15656;DHT22;7928;43.614;1.456;2023-06-10T02:22:19;16.80;99.90
15656;DHT22;7928;43.614;1.456;2023-06-10T02:24:46;16.80;99.90
15656;DHT22;7928;43.614;1.456;2023-06-10T02:27:14;16.80;99.90
15656;DHT22;7928;43.614;1.456;2023-06-10T02:29:42;16.80;99.90
15656;DHT22;7928;43.614;1.456;2023-06-10T02:32:09;16.80;99.90
15656;DHT22;7928;43.614;1.456;2023-06-10T02:34:36;16.80;99.90
15656;DHT22;7928;43.614;1.456;2023-06-10T02:37:04;16.80;99.90
15656;DHT22;7928;43.614;1.456;2023-06-10T02:39:31;16.80;99.90
15656;DHT22;7928;43.614;1.456;2023-06-10T02:41:58;16.70;99.90
15656;DHT22;7928;43.614;1.456;2023-06-10T02:44:25;16.70;99.90
15656;DHT22;7928;43.614;1.456;2023-06-10T02:46:53;16.70;99.90
15656;DHT22;7928;43.614;1.456;2023-06-10T02:49:20;16.70;99.90
15656;DHT22;7928;43.614;1.456;2023-06-10T02:51:47;16.70;99.90
15656;DHT22;7928;43.614;1.456;2023-06-10T02:54:14;16.70;99.90
15656;DHT22;7928;43.614;1.456;2023-06-10T02:56:42;16.70;99.90
15656;DHT22;7928;43.614;1.456;2023-06-10T02:59:09;16.60;99.90
15656;DHT22;7928;43.614;1.456;2023-06-10T03:01:36;16.70;99.90
15656;DHT22;7928;43.614;1.456;2023-06-10T03:04:05;16.70;99.90
15656;DHT22;7928;43.614;1.456;2023-06-10T03:06:33;16.70;99.90
15656;DHT22;7928;43.614;1.456;2023-06-10T03:09:01;16.70;99.90
15656;DHT22;7928;43.614;1.456;2023-06-10T03:11:29;16.60;99.90
15656;DHT22;7928;43.614;1.456;2023-06-10T03:13:57;16.70;99.90
15656;DHT22;7928;43.614;1.456;2023-06-10T03:16:24;16.70;99.90
15656;DHT22;7928;43.614;1.456;2023-06-10T03:18:53;16.60;99.90
15656;DHT22;7928;43.614;1.456;2023-06-10T03:21:21;16.70;99.90
15656;DHT22;7928;43.614;1.456;2023-06-10T03:23:48;16.70;99.90
15656;DHT22;7928;43.614;1.456;2023-06-10T03:26:15;16.60;99.90
15656;DHT22;7928;43.614;1.456;2023-06-10T03:28:42;16.60;99.90
15656;DHT22;7928;43.614;1.456;2023-06-10T03:31:09;16.60;99.90
15656;DHT22;7928;43.614;1.456;2023-06-10T03:33:36;16.50;99.90
15656;DHT22;7928;43.614;1.456;2023-06-10T03:36:05;16.50;99.90
15656;DHT22;7928;43.614;1.456;2023-06-10T03:38:33;16.50;99.90
15656;DHT22;7928;43.614;1.456;2023-06-10T03:41:01;16.50;99.90
15656;DHT22;7928;43.614;1.456;2023-06-10T03:43:28;16.50;99.90
15656;DHT22;7928;43.614;1.456;2023-06-10T03:45:56;16.50;99.90
15656;DHT22;7928;43.614;1.456;2023-06-10T03:48:23;16.50;99.90
15656;DHT22;7928;43.614;1.456;2023-06-10T03:50:51;16.50;99.90
15656;DHT22;7928;43.614;1.456;2023-06-10T03:53:18;16.50;99.90
15656;DHT22;7928;43.614;1.456;2023-06-10T03:55:46;16.50;99.90
15656;DHT22;7928;43.614;1.456;2023-06-10T03:58:13;16.50;99.90
15656;DHT22;7928;43.614;1.456;2023-06-10T04:00:40;16.50;99.90
15656;DHT22;7928;43.614;1.456;2023-06-10T04:03:08;16.50;99.90
15656;DHT22;7928;43.614;1.456;2023-06-10T04:05:40;16.40;99.90
15656;DHT22;7928;43.614;1.456;2023-06-10T04:08:08;16.40;99.90
15656;DHT22;7928;43.614;1.456;2023-06-10T04:10:35;16.40;99.90
15656;DHT22;7928;43.614;1.456;2023-06-10T04:13:04;16.30;99.90
15656;DHT22;7928;43.614;1.456;2023-06-10T04:15:31;16.30;99.90
15656;DHT22;7928;43.614;1.456;2023-06-10T04:17:59;16.30;99.90
15656;DHT22;7928;43.614;1.456;2023-06-10T04:20:26;16.30;99.90
15656;DHT22;7928;43.614;1.456;2023-06-10T04:22:54;16.30;99.90
15656;DHT22;7928;43.614;1.456;2023-06-10T04:25:20;16.30;99.90
15656;DHT22;7928;43.614;1.456;2023-06-10T04:27:48;16.30;99.90
15656;DHT22;7928;43.614;1.456;2023-06-10T04:30:17;16.30;99.90
15656;DHT22;7928;43.614;1.456;2023-06-10T04:32:44;16.30;99.90
15656;DHT22;7928;43.614;1.456;2023-06-10T04:35:12;16.30;99.90
15656;DHT22;7928;43.614;1.456;2023-06-10T04:37:39;16.30;99.90
15656;DHT22;7928;43.614;1.456;2023-06-10T04:40:07;16.30;99.90
15656;DHT22;7928;43.614;1.456;2023-06-10T04:42:35;16.40;99.90
15656;DHT22;7928;43.614;1.456;2023-06-10T04:45:02;16.40;99.90
15656;DHT22;7928;43.614;1.456;2023-06-10T04:47:31;16.40;99.90
15656;DHT22;7928;43.614;1.456;2023-06-10T04:49:59;16.40;99.90
15656;DHT22;7928;43.614;1.456;2023-06-10T04:52:26;16.40;99.90
15656;DHT22;7928;43.614;1.456;2023-06-10T04:54:54;16.40;99.90
15656;DHT22;7928;43.614;1.456;2023-06-10T04:57:21;16.40;99.90
15656;DHT22;7928;43.614;1.456;2023-06-10T04:59:48;16.40;99.90
15656;DHT22;7928;43.614;1.456;2023-06-10T05:02:15;16.40;99.90
15656;DHT22;7928;43.614;1.456;2023-06-10T05:04:43;16.40;99.90
15656;DHT22;7928;43.614;1.456;2023-06-10T05:07:10;16.40;99.90
15656;DHT22;7928;43.614;1.456;2023-06-10T05:09:37;16.50;99.90
15656;DHT22;7928;43.614;1.456;2023-06-10T05:12:05;16.50;99.90
15656;DHT22;7928;43.614;1.456;2023-06-10T05:14:32;16.50;99.90
15656;DHT22;7928;43.614;1.456;2023-06-10T05:16:59;16.50;99.90
15656;DHT22;7928;43.614;1.456;2023-06-10T05:19:26;16.50;99.90
15656;DHT22;7928;43.614;1.456;2023-06-10T05:21:55;16.60;99.90
15656;DHT22;7928;43.614;1.456;2023-06-10T05:24:22;16.60;99.90
15656;DHT22;7928;43.614;1.456;2023-06-10T05:26:49;16.60;99.90
15656;DHT22;7928;43.614;1.456;2023-06-10T05:29:16;16.60;99.90
15656;DHT22;7928;43.614;1.456;2023-06-10T05:31:43;16.70;99.90
15656;DHT22;7928;43.614;1.456;2023-06-10T05:34:10;16.70;99.90
15656;DHT22;7928;43.614;1.456;2023-06-10T05:36:37;16.70;99.90
15656;DHT22;7928;43.614;1.456;2023-06-10T05:39:05;16.70;99.90
15656;DHT22;7928;43.614;1.456;2023-06-10T05:41:32;16.80;99.90
15656;DHT22;7928;43.614;1.456;2023-06-10T05:43:59;16.90;99.90
15656;DHT22;7928;43.614;1.456;2023-06-10T05:46:26;17.00;99.90
15656;DHT22;7928;43.614;1.456;2023-06-10T05:48:53;17.00;99.90
15656;DHT22;7928;43.614;1.456;2023-06-10T05:51:20;17.10;99.90
15656;DHT22;7928;43.614;1.456;2023-06-10T05:53:47;17.10;99.90
15656;DHT22;7928;43.614;1.456;2023-06-10T05:56:15;17.10;99.90
15656;DHT22;7928;43.614;1.456;2023-06-10T05:58:43;17.30;99.90
15656;DHT22;7928;43.614;1.456;2023-06-10T06:01:10;17.30;99.90
15656;DHT22;7928;43.614;1.456;2023-06-10T06:03:37;17.30;99.90
15656;DHT22;7928;43.614;1.456;2023-06-10T06:06:04;17.40;99.90
15656;DHT22;7928;43.614;1.456;2023-06-10T06:08:31;17.40;99.90
15656;DHT22;7928;43.614;1.456;2023-06-10T06:10:58;17.50;99.90
15656;DHT22;7928;43.614;1.456;2023-06-10T06:13:27;17.50;99.90
15656;DHT22;7928;43.614;1.456;2023-06-10T06:15:54;17.60;99.90
15656;DHT22;7928;43.614;1.456;2023-06-10T06:18:21;17.70;99.90
15656;DHT22;7928;43.614;1.456;2023-06-10T06:20:48;17.80;99.90
15656;DHT22;7928;43.614;1.456;2023-06-10T06:23:15;17.90;99.90
15656;DHT22;7928;43.614;1.456;2023-06-10T06:25:42;17.90;99.90
15656;DHT22;7928;43.614;1.456;2023-06-10T06:28:10;17.90;99.90
15656;DHT22;7928;43.614;1.456;2023-06-10T06:30:38;18.00;99.90
15656;DHT22;7928;43.614;1.456;2023-06-10T06:33:05;18.10;99.90
15656;DHT22;7928;43.614;1.456;2023-06-10T06:35:33;18.10;99.90
15656;DHT22;7928;43.614;1.456;2023-06-10T06:38:00;18.20;99.90
15656;DHT22;7928;43.614;1.456;2023-06-10T06:40:27;18.30;99.90
15656;DHT22;7928;43.614;1.456;2023-06-10T06:42:54;18.40;99.90
15656;DHT22;7928;43.614;1.456;2023-06-10T06:45:21;18.50;99.90
15656;DHT22;7928;43.614;1.456;2023-06-10T06:47:49;18.50;99.90
15656;DHT22;7928;43.614;1.456;2023-06-10T06:50:17;18.60;99.90
15656;DHT22;7928;43.614;1.456;2023-06-10T06:52:44;18.60;99.90
15656;DHT22;7928;43.614;1.456;2023-06-10T06:55:11;18.70;99.90
15656;DHT22;7928;43.614;1.456;2023-06-10T06:57:38;18.70;99.90
15656;DHT22;7928;43.614;1.456;2023-06-10T07:00:06;18.80;99.90
15656;DHT22;7928;43.614;1.456;2023-06-10T07:02:34;18.90;99.90
15656;DHT22;7928;43.614;1.456;2023-06-10T07:05:03;19.00;99.90
15656;DHT22;7928;43.614;1.456;2023-06-10T07:07:30;19.10;99.90
15656;DHT22;7928;43.614;1.456;2023-06-10T07:09:57;19.20;99.90
15656;DHT22;7928;43.614;1.456;2023-06-10T07:12:24;19.30;99.90
15656;DHT22;7928;43.614;1.456;2023-06-10T07:14:51;19.40;99.90
15656;DHT22;7928;43.614;1.456;2023-06-10T07:17:18;19.50;99.90
15656;DHT22;7928;43.614;1.456;2023-06-10T07:19:45;19.50;99.90
15656;DHT22;7928;43.614;1.456;2023-06-10T07:22:14;19.60;99.90
15656;DHT22;7928;43.614;1.456;2023-06-10T07:24:41;19.70;99.90
15656;DHT22;7928;43.614;1.456;2023-06-10T07:27:09;19.80;99.90
15656;DHT22;7928;43.614;1.456;2023-06-10T07:29:36;19.80;99.90
15656;DHT22;7928;43.614;1.456;2023-06-10T07:32:03;19.90;99.90
15656;DHT22;7928;43.614;1.456;2023-06-10T07:34:30;20.00;99.90
15656;DHT22;7928;43.614;1.456;2023-06-10T07:36:57;20.00;99.90
15656;DHT22;7928;43.614;1.456;2023-06-10T07:39:26;20.10;99.90
15656;DHT22;7928;43.614;1.456;2023-06-10T07:41:53;20.20;99.90
15656;DHT22;7928;43.614;1.456;2023-06-10T07:44:22;20.30;99.90
15656;DHT22;7928;43.614;1.456;2023-06-10T07:46:49;20.30;99.90
15656;DHT22;7928;43.614;1.456;2023-06-10T07:49:16;20.40;99.90
15656;DHT22;7928;43.614;1.456;2023-06-10T07:51:43;20.50;99.90
15656;DHT22;7928;43.614;1.456;2023-06-10T07:54:10;20.50;99.90
15656;DHT22;7928;43.614;1.456;2023-06-10T07:56:40;20.60;99.90
15656;DHT22;7928;43.614;1.456;2023-06-10T07:59:07;20.70;99.90
15656;DHT22;7928;43.614;1.456;2023-06-10T08:01:34;20.80;99.90
15656;DHT22;7928;43.614;1.456;2023-06-10T08:04:03;20.90;99.90
15656;DHT22;7928;43.614;1.456;2023-06-10T08:06:30;21.00;99.90
15656;DHT22;7928;43.614;1.456;2023-06-10T08:08:57;21.10;99.90
15656;DHT22;7928;43.614;1.456;2023-06-10T08:11:25;21.20;99.90
15656;DHT22;7928;43.614;1.456;2023-06-10T08:13:55;21.20;99.90
15656;DHT22;7928;43.614;1.456;2023-06-10T08:16:22;21.30;99.90
15656;DHT22;7928;43.614;1.456;2023-06-10T08:18:49;21.50;99.90
15656;DHT22;7928;43.614;1.456;2023-06-10T08:21:17;21.50;99.90
15656;DHT22;7928;43.614;1.456;2023-06-10T08:23:43;21.60;99.90
15656;DHT22;7928;43.614;1.456;2023-06-10T08:26:11;21.70;99.90
15656;DHT22;7928;43.614;1.456;2023-06-10T08:28:38;21.70;99.90
15656;DHT22;7928;43.614;1.456;2023-06-10T08:31:06;21.80;99.90
15656;DHT22;7928;43.614;1.456;2023-06-10T08:33:33;21.90;99.90
15656;DHT22;7928;43.614;1.456;2023-06-10T08:36:00;22.00;99.90
15656;DHT22;7928;43.614;1.456;2023-06-10T08:38:27;22.10;99.90
15656;DHT22;7928;43.614;1.456;2023-06-10T08:40:56;22.10;99.90
15656;DHT22;7928;43.614;1.456;2023-06-10T08:43:31;22.20;99.90
15656;DHT22;7928;43.614;1.456;2023-06-10T08:46:00;22.30;99.90
15656;DHT22;7928;43.614;1.456;2023-06-10T08:48:30;22.40;99.90
15656;DHT22;7928;43.614;1.456;2023-06-10T08:50:57;22.40;99.90
15656;DHT22;7928;43.614;1.456;2023-06-10T08:53:26;22.50;99.90
15656;DHT22;7928;43.614;1.456;2023-06-10T08:55:58;22.60;99.90
15656;DHT22;7928;43.614;1.456;2023-06-10T08:58:28;22.60;99.90
15656;DHT22;7928;43.614;1.456;2023-06-10T09:00:55;22.80;99.90
15656;DHT22;7928;43.614;1.456;2023-06-10T09:03:23;22.90;99.90
15656;DHT22;7928;43.614;1.456;2023-06-10T09:05:52;23.00;99.90
15656;DHT22;7928;43.614;1.456;2023-06-10T09:08:21;23.10;99.90
15656;DHT22;7928;43.614;1.456;2023-06-10T09:10:48;23.10;99.90
15656;DHT22;7928;43.614;1.456;2023-06-10T09:13:15;23.20;99.90
15656;DHT22;7928;43.614;1.456;2023-06-10T09:15:44;23.30;99.90
15656;DHT22;7928;43.614;1.456;2023-06-10T09:18:11;23.30;99.90
15656;DHT22;7928;43.614;1.456;2023-06-10T09:20:38;23.50;99.90
15656;DHT22;7928;43.614;1.456;2023-06-10T09:23:07;23.70;99.90
15656;DHT22;7928;43.614;1.456;2023-06-10T09:25:35;23.80;99.90
15656;DHT22;7928;43.614;1.456;2023-06-10T09:28:03;23.90;99.90
15656;DHT22;7928;43.614;1.456;2023-06-10T09:30:32;23.90;99.90
15656;DHT22;7928;43.614;1.456;2023-06-10T09:33:00;23.90;99.90
15656;DHT22;7928;43.614;1.456;2023-06-10T09:35:28;23.90;99.90
15656;DHT22;7928;43.614;1.456;2023-06-10T09:37:57;23.90;99.90
15656;DHT22;7928;43.614;1.456;2023-06-10T09:40:25;23.90;99.90
15656;DHT22;7928;43.614;1.456;2023-06-10T09:42:54;24.00;99.90
15656;DHT22;7928;43.614;1.456;2023-06-10T09:45:22;24.00;99.90
15656;DHT22;7928;43.614;1.456;2023-06-10T09:47:52;24.20;99.90
15656;DHT22;7928;43.614;1.456;2023-06-10T09:50:20;24.40;99.90
15656;DHT22;7928;43.614;1.456;2023-06-10T09:52:47;24.50;99.90
15656;DHT22;7928;43.614;1.456;2023-06-10T09:55:14;24.60;99.90
15656;DHT22;7928;43.614;1.456;2023-06-10T09:57:43;24.70;99.90
15656;DHT22;7928;43.614;1.456;2023-06-10T10:00:14;24.80;99.90
15656;DHT22;7928;43.614;1.456;2023-06-10T10:02:46;25.00;99.90
15656;DHT22;7928;43.614;1.456;2023-06-10T10:05:14;25.20;99.90
15656;DHT22;7928;43.614;1.456;2023-06-10T10:07:41;25.40;99.90
15656;DHT22;7928;43.614;1.456;2023-06-10T10:10:09;25.60;99.90
15656;DHT22;7928;43.614;1.456;2023-06-10T10:12:37;25.80;99.90
15656;DHT22;7928;43.614;1.456;2023-06-10T10:15:08;25.80;99.90
15656;DHT22;7928;43.614;1.456;2023-06-10T10:17:39;25.80;99.90
15656;DHT22;7928;43.614;1.456;2023-06-10T10:20:08;25.80;99.90
15656;DHT22;7928;43.614;1.456;2023-06-10T10:22:39;25.70;99.90
15656;DHT22;7928;43.614;1.456;2023-06-10T10:25:10;25.80;99.90
15656;DHT22;7928;43.614;1.456;2023-06-10T10:27:43;26.10;99.90
15656;DHT22;7928;43.614;1.456;2023-06-10T10:30:14;26.00;99.90
15656;DHT22;7928;43.614;1.456;2023-06-10T10:32:51;26.20;99.90
15656;DHT22;7928;43.614;1.456;2023-06-10T10:35:21;26.40;99.90
15656;DHT22;7928;43.614;1.456;2023-06-10T10:37:49;26.50;99.90
15656;DHT22;7928;43.614;1.456;2023-06-10T10:40:16;26.70;99.90
15656;DHT22;7928;43.614;1.456;2023-06-10T10:42:43;26.90;99.90
15656;DHT22;7928;43.614;1.456;2023-06-10T10:45:12;27.00;99.90
15656;DHT22;7928;43.614;1.456;2023-06-10T10:47:40;27.00;99.90
15656;DHT22;7928;43.614;1.456;2023-06-10T10:50:15;26.90;99.90
15656;DHT22;7928;43.614;1.456;2023-06-10T10:52:54;27.00;99.90
15656;DHT22;7928;43.614;1.456;2023-06-10T10:55:21;27.00;99.90
15656;DHT22;7928;43.614;1.456;2023-06-10T10:57:59;27.10;99.90
15656;DHT22;7928;43.614;1.456;2023-06-10T11:00:31;27.10;99.90
15656;DHT22;7928;43.614;1.456;2023-06-10T11:03:00;27.30;99.90
15656;DHT22;7928;43.614;1.456;2023-06-10T11:05:39;27.60;99.90
15656;DHT22;7928;43.614;1.456;2023-06-10T11:08:07;28.10;99.90
15656;DHT22;7928;43.614;1.456;2023-06-10T11:10:36;28.50;99.90
15656;DHT22;7928;43.614;1.456;2023-06-10T11:13:07;29.00;99.90
15656;DHT22;7928;43.614;1.456;2023-06-10T11:15:42;29.10;99.90
15656;DHT22;7928;43.614;1.456;2023-06-10T11:18:12;29.50;99.90
15656;DHT22;7928;43.614;1.456;2023-06-10T11:20:52;29.50;99.90
15656;DHT22;7928;43.614;1.456;2023-06-10T11:23:40;29.80;99.90
15656;DHT22;7928;43.614;1.456;2023-06-10T11:26:29;31.10;99.90
15656;DHT22;7928;43.614;1.456;2023-06-10T11:29:11;31.50;99.90
15656;DHT22;7928;43.614;1.456;2023-06-10T11:31:42;32.50;99.90
15656;DHT22;7928;43.614;1.456;2023-06-10T11:34:09;33.30;99.90
15656;DHT22;7928;43.614;1.456;2023-06-10T11:36:38;33.70;99.90
15656;DHT22;7928;43.614;1.456;2023-06-10T11:39:09;32.60;99.90
15656;DHT22;7928;43.614;1.456;2023-06-10T11:41:37;32.10;99.90
15656;DHT22;7928;43.614;1.456;2023-06-10T11:44:08;31.40;99.90
15656;DHT22;7928;43.614;1.456;2023-06-10T11:46:36;31.20;99.90
15656;DHT22;7928;43.614;1.456;2023-06-10T11:49:05;32.10;99.90
15656;DHT22;7928;43.614;1.456;2023-06-10T11:51:34;32.40;99.90
15656;DHT22;7928;43.614;1.456;2023-06-10T11:54:02;33.00;99.90
15656;DHT22;7928;43.614;1.456;2023-06-10T11:56:30;33.70;99.90
15656;DHT22;7928;43.614;1.456;2023-06-10T11:58:58;34.10;99.90
15656;DHT22;7928;43.614;1.456;2023-06-10T12:01:30;33.90;99.90
15656;DHT22;7928;43.614;1.456;2023-06-10T12:04:02;33.70;99.90
15656;DHT22;7928;43.614;1.456;2023-06-10T12:06:40;33.70;99.90
15656;DHT22;7928;43.614;1.456;2023-06-10T12:09:12;34.40;99.90
15656;DHT22;7928;43.614;1.456;2023-06-10T12:11:39;35.00;99.90
15656;DHT22;7928;43.614;1.456;2023-06-10T12:14:06;35.60;99.90
15656;DHT22;7928;43.614;1.456;2023-06-10T12:16:33;35.20;99.90
15656;DHT22;7928;43.614;1.456;2023-06-10T12:19:02;35.80;97.30
15656;DHT22;7928;43.614;1.456;2023-06-10T12:21:29;35.50;98.70
15656;DHT22;7928;43.614;1.456;2023-06-10T12:24:02;34.10;99.20
15656;DHT22;7928;43.614;1.456;2023-06-10T12:26:40;33.20;99.80
15656;DHT22;7928;43.614;1.456;2023-06-10T12:29:19;33.30;99.90
15656;DHT22;7928;43.614;1.456;2023-06-10T12:31:58;34.40;99.70
15656;DHT22;7928;43.614;1.456;2023-06-10T12:34:36;34.80;98.10
15656;DHT22;7928;43.614;1.456;2023-06-10T12:37:09;33.50;97.80
15656;DHT22;7928;43.614;1.456;2023-06-10T12:39:41;32.70;99.50
15656;DHT22;7928;43.614;1.456;2023-06-10T12:42:09;33.80;98.50
15656;DHT22;7928;43.614;1.456;2023-06-10T12:44:39;35.20;97.70
15656;DHT22;7928;43.614;1.456;2023-06-10T12:47:10;35.20;95.30
15656;DHT22;7928;43.614;1.456;2023-06-10T12:49:39;35.80;96.10
15656;DHT22;7928;43.614;1.456;2023-06-10T12:52:06;36.80;97.00
15656;DHT22;7928;43.614;1.456;2023-06-10T12:54:34;35.70;97.00
15656;DHT22;7928;43.614;1.456;2023-06-10T12:57:03;34.90;98.50
15656;DHT22;7928;43.614;1.456;2023-06-10T12:59:30;34.30;98.10
15656;DHT22;7928;43.614;1.456;2023-06-10T13:01:57;33.60;96.80
15656;DHT22;7928;43.614;1.456;2023-06-10T13:04:24;33.00;97.80
15656;DHT22;7928;43.614;1.456;2023-06-10T13:06:52;32.60;98.50
15656;DHT22;7928;43.614;1.456;2023-06-10T13:09:19;32.10;97.70
15656;DHT22;7928;43.614;1.456;2023-06-10T13:11:46;32.00;99.20
15656;DHT22;7928;43.614;1.456;2023-06-10T13:14:14;33.40;97.70
15656;DHT22;7928;43.614;1.456;2023-06-10T13:16:41;33.00;98.30
15656;DHT22;7928;43.614;1.456;2023-06-10T13:19:10;33.60;98.40
15656;DHT22;7928;43.614;1.456;2023-06-10T13:21:37;33.60;98.80
15656;DHT22;7928;43.614;1.456;2023-06-10T13:24:04;34.90;97.10
15656;DHT22;7928;43.614;1.456;2023-06-10T13:26:31;36.00;97.20
15656;DHT22;7928;43.614;1.456;2023-06-10T13:28:58;36.80;96.90
15656;DHT22;7928;43.614;1.456;2023-06-10T13:31:27;36.00;94.50
15656;DHT22;7928;43.614;1.456;2023-06-10T13:33:53;36.80;95.10
15656;DHT22;7928;43.614;1.456;2023-06-10T13:36:21;37.60;94.00
15656;DHT22;7928;43.614;1.456;2023-06-10T13:38:48;38.40;93.90
15656;DHT22;7928;43.614;1.456;2023-06-10T13:41:15;37.30;93.20
15656;DHT22;7928;43.614;1.456;2023-06-10T13:43:42;36.70;94.20
15656;DHT22;7928;43.614;1.456;2023-06-10T13:46:09;35.80;94.40
15656;DHT22;7928;43.614;1.456;2023-06-10T13:48:37;36.10;94.80
15656;DHT22;7928;43.614;1.456;2023-06-10T13:51:04;37.10;94.30
15656;DHT22;7928;43.614;1.456;2023-06-10T13:53:32;37.80;93.10
15656;DHT22;7928;43.614;1.456;2023-06-10T13:56:00;38.20;90.30
15656;DHT22;7928;43.614;1.456;2023-06-10T13:58:27;37.50;91.50
15656;DHT22;7928;43.614;1.456;2023-06-10T14:00:54;38.20;91.70
15656;DHT22;7928;43.614;1.456;2023-06-10T14:03:21;37.00;88.70
15656;DHT22;7928;43.614;1.456;2023-06-10T14:05:49;36.90;91.30
15656;DHT22;7928;43.614;1.456;2023-06-10T14:08:16;36.80;91.70
15656;DHT22;7928;43.614;1.456;2023-06-10T14:10:43;35.60;91.90
15656;DHT22;7928;43.614;1.456;2023-06-10T14:13:10;34.70;92.50
15656;DHT22;7928;43.614;1.456;2023-06-10T14:15:37;33.80;93.20
15656;DHT22;7928;43.614;1.456;2023-06-10T14:18:05;34.80;92.80
15656;DHT22;7928;43.614;1.456;2023-06-10T14:20:31;36.00;91.90
15656;DHT22;7928;43.614;1.456;2023-06-10T14:23:00;35.90;91.20
15656;DHT22;7928;43.614;1.456;2023-06-10T14:25:27;35.10;91.60
15656;DHT22;7928;43.614;1.456;2023-06-10T14:27:54;34.30;91.40
15656;DHT22;7928;43.614;1.456;2023-06-10T14:30:21;35.10;92.60
15656;DHT22;7928;43.614;1.456;2023-06-10T14:32:48;36.30;91.50
15656;DHT22;7928;43.614;1.456;2023-06-10T14:35:16;37.30;90.20
15656;DHT22;7928;43.614;1.456;2023-06-10T14:37:43;37.90;90.20
15656;DHT22;7928;43.614;1.456;2023-06-10T14:40:11;38.30;88.50
15656;DHT22;7928;43.614;1.456;2023-06-10T14:42:38;38.70;85.10
15656;DHT22;7928;43.614;1.456;2023-06-10T14:45:07;38.40;85.00
15656;DHT22;7928;43.614;1.456;2023-06-10T14:47:35;38.70;86.10
15656;DHT22;7928;43.614;1.456;2023-06-10T14:50:02;38.50;83.40
15656;DHT22;7928;43.614;1.456;2023-06-10T14:52:30;38.30;85.20
15656;DHT22;7928;43.614;1.456;2023-06-10T14:54:57;38.40;85.50
15656;DHT22;7928;43.614;1.456;2023-06-10T14:57:25;38.80;85.10
15656;DHT22;7928;43.614;1.456;2023-06-10T14:59:52;38.60;84.40
15656;DHT22;7928;43.614;1.456;2023-06-10T15:02:19;38.90;83.20
15656;DHT22;7928;43.614;1.456;2023-06-10T15:04:46;39.00;83.40
15656;DHT22;7928;43.614;1.456;2023-06-10T15:07:13;39.20;82.60
15656;DHT22;7928;43.614;1.456;2023-06-10T15:09:41;39.40;84.00
15656;DHT22;7928;43.614;1.456;2023-06-10T15:12:08;38.90;80.50
15656;DHT22;7928;43.614;1.456;2023-06-10T15:14:37;39.00;81.40
15656;DHT22;7928;43.614;1.456;2023-06-10T15:17:04;39.10;82.00
15656;DHT22;7928;43.614;1.456;2023-06-10T15:19:31;39.00;79.50
15656;DHT22;7928;43.614;1.456;2023-06-10T15:21:58;39.10;81.50
15656;DHT22;7928;43.614;1.456;2023-06-10T15:24:25;38.80;81.80
15656;DHT22;7928;43.614;1.456;2023-06-10T15:26:52;38.70;82.00
15656;DHT22;7928;43.614;1.456;2023-06-10T15:29:19;38.50;80.60
15656;DHT22;7928;43.614;1.456;2023-06-10T15:31:47;38.60;82.10
15656;DHT22;7928;43.614;1.456;2023-06-10T15:34:14;38.30;82.90
15656;DHT22;7928;43.614;1.456;2023-06-10T15:36:41;38.60;81.90
15656;DHT22;7928;43.614;1.456;2023-06-10T15:39:08;38.60;81.40
15656;DHT22;7928;43.614;1.456;2023-06-10T15:41:35;38.80;81.40
15656;DHT22;7928;43.614;1.456;2023-06-10T15:44:02;38.80;81.30
15656;DHT22;7928;43.614;1.456;2023-06-10T15:46:29;39.00;77.80
15656;DHT22;7928;43.614;1.456;2023-06-10T15:48:58;39.00;77.60
15656;DHT22;7928;43.614;1.456;2023-06-10T15:51:25;38.00;78.30